Abington, Pennsylvania
Current Conditions -  °F | °C
As of 7:54 PM on Monday 20 Oct 2014 (Local Time) from KPNE Reporting Station
Clear Clear  
Wind Chill: 51°   Ceiling: Unl
Heat Index: 51°   Visibility: 10mi
Dew Point: 39°   Wind: 0mph
Humidity: 63%   Direction: NA
Pressure: 29.99"   Gusts: NA
Location:  40.12°N, 75.12°W
Report Text: KPNE 202354Z 00000KT 10SM CLR 11/04 A2999 RMK AO2 SLP155 T01060039 10172 20106 55002 $
Loading
Personal Weather Stations






























Interactive Weather Map
Tropical Storm Tracking
New forecast layout! Learn more

10-Day Weather Forecast

Advertisements
Track Severe Weather on mobile